Data for 04/09/2010

Time Sea-Level Adjusted Pressure Absolute Pressure Temperature Relative Humidity Dew Point   
(mb) (inHg) (mb) (inHg) (C) (F) (%) (C) (F)
00:05 1017 30.03 846 24.98 -3 26.6 50 -12.1 10.3
00:10 1017 30.03 846 24.98 -3 26.6 47 -12.7 9.1
00:15 1017 30.03 846 24.98 -2.7 27.2 41 -14.1 6.7
00:20 1017 30.03 846 24.98 -2.4 27.8 39 -14.7 5.6
00:25 1017 30.03 846 24.98 -2.3 27.9 38 -14.7 5.6
00:30 1017 30.03 846 24.98 -2.3 27.9 40 -14.3 6.3
00:35 1017 30.03 846 24.98 -2.4 27.6 41 -14.1 6.6
00:40 1017 30.03 846 24.98 -2.8 27 44 -13.3 8
00:45 1017 30.03 846 24.98 -3 26.6 44 -13.6 7.6
00:50 1017 30.03 847 25.01 -3.1 26.5 45 -13.5 7.6
00:55 1017 30.03 846 24.98 -3.2 26.3 43 -14 6.8
01:00 1017 30.03 846 24.98 -3.1 26.4 45 -13.6 7.6
01:05 1017 30.03 846 24.98 -3.1 26.4 46 -13.1 8.4
01:10 1017 30.03 846 24.98 -3.2 26.3 46 -13.2 8.3
01:15 1017 30.03 846 24.98 -3.3 26.1 48 -12.9 8.8
01:20 1017 30.03 846 24.98 -3.3 26 47 -13.2 8.3
01:25 1017 30.03 846 24.98 -3.4 25.9 47 -13.1 8.5
01:30 1017 30.03 846 24.98 -3.5 25.7 47 -13.3 8
01:35 1017 30.03 846 24.98 -3.5 25.8 46 -13.4 7.8
01:40 1017 30.03 846 24.98 -3.4 25.8 47 -13.3 8.1
01:45 1017 30.03 846 24.98 -3.5 25.8 48 -13.1 8.4
01:50 1017 30.03 846 24.98 -3.6 25.6 48 -12.9 8.7
01:55 1017 30.03 846 24.98 -3.7 25.4 49 -12.9 8.8
02:00 1017 30.03 846 24.98 -3.7 25.3 49 -13.1 8.5
02:05 1017 30.03 846 24.98 -3.9 25 47 -13.6 7.5
02:10 1017 30.03 846 24.98 -4.7 23.5 51 -13.5 7.7
02:15 1017 30.03 846 24.98 -4.8 23.4 50 -13.6 7.5
02:20 1017 30.03 846 24.98 -4.3 24.2 50 -13.3 8
02:25 1017 30.03 846 24.98 -4.1 24.7 49 -13.3 8.1
02:30 1017 30.03 846 24.98 -4 24.9 49 -13.2 8.3
02:35 1017 30.03 846 24.98 -3.9 24.9 49 -13.1 8.4
02:40 1017 30.03 846 24.98 -4 24.7 50 -12.9 8.7
02:45 1017 30.03 846 24.98 -4.1 24.6 51 -12.8 9
02:50 1017 30.03 846 24.98 -4.2 24.5 51 -12.9 8.7
02:55 1017 30.03 846 24.98 -4.2 24.4 50 -13.2 8.2
03:00 1017 30.03 846 24.98 -4.2 24.5 49 -13.4 7.8
03:05 1017 30.03 846 24.98 -4.1 24.6 47 -13.8 7.2
03:10 1017 30.03 846 24.98 -4.1 24.7 47 -13.7 7.3
03:15 1017 30.03 846 24.98 -4 24.7 46 -13.9 6.9
03:20 1017 30.03 846 24.98 -4 24.7 46 -14.1 6.5
03:25 1017 30.03 846 24.98 -3.9 24.9 45 -14.3 6.2
03:30 1017 30.03 846 24.98 -3.9 25 47 -13.7 7.4
03:35 1017 30.03 846 24.98 -3.9 24.9 47 -13.6 7.6
03:40 1017 30.03 846 24.98 -4 24.8 47 -13.9 7.1
03:45 1017 30.03 846 24.98 -4 24.8 49 -13.2 8.2
03:50 1017 30.03 846 24.98 -4 24.8 48 -13.4 7.9
03:55 1017 30.03 846 24.98 -4 24.7 49 -13.3 8.1
04:00 1017 30.03 846 24.98 -4.1 24.7 49 -13.2 8.2
04:05 1017 30.03 846 24.98 -4.4 24.1 46 -14.3 6.2
04:10 1017 30.03 846 24.98 -4.2 24.4 47 -14 6.8
04:15 1017 30.03 846 24.98 -4.1 24.5 47 -13.9 7
04:20 1017 30.03 846 24.98 -4.1 24.6 47 -13.8 7.2
04:25 1017 30.03 846 24.98 -4.1 24.6 47 -13.8 7.2
04:30 1017 30.03 846 24.98 -4.1 24.7 47 -13.7 7.4
04:35 1017 30.03 846 24.98 -4 24.8 46 -13.9 7
04:40 1017 30.03 846 24.98 -3.9 25 46 -14 6.8
04:45 1017 30.03 846 24.98 -3.9 25.1 46 -13.8 7.1
04:50 1017 30.03 846 24.98 -3.9 24.9 46 -13.9 6.9
04:55 1017 30.03 846 24.98 -4 24.8 46 -13.9 6.9
05:00 1017 30.03 846 24.98 -4.1 24.6 47 -13.9 6.9
05:05 1017 30.03 846 24.98 -4.2 24.4 47 -14.1 6.7
05:10 1017 30.03 846 24.98 -4.3 24.3 47 -14.1 6.6
05:15 1017 30.03 846 24.98 -4.2 24.5 46 -14.1 6.6
05:20 1017 30.03 846 24.98 -4.2 24.5 48 -13.5 7.7
05:25 1017 30.03 846 24.98 -4.2 24.4 50 -13.1 8.4
05:30 1017 30.03 847 25.01 -4.4 24 51 -13.1 8.4
05:35 1017 30.03 847 25.01 -4.7 23.6 52 -13.2 8.2
05:40 1017 30.03 847 25.01 -4.7 23.5 52 -13.2 8.3
05:45 1018 30.06 847 25.01 -4.8 23.4 52 -13.1 8.5
05:50 1018 30.06 847 25.01 -4.8 23.4 53 -13 8.5
05:55 1018 30.06 847 25.01 -4.8 23.3 52 -13.4 7.9
06:00 1018 30.06 847 25.01 -4.7 23.5 49 -13.9 7.1
06:05 1018 30.06 847 25.01 -4.5 24 51 -13.2 8.2
06:10 1018 30.06 847 25.01 -4.7 23.6 52 -13 8.6
06:15 1018 30.06 847 25.01 -4.9 23.2 53 -13.1 8.4
06:20 1018 30.06 847 25.01 -5 23 54 -13 8.5
06:25 1018 30.06 847 25.01 -5.1 22.8 54 -13 8.6
06:30 1018 30.06 847 25.01 -5.2 22.7 54 -13.2 8.3
06:35 1018 30.06 847 25.01 -5.1 22.7 53 -13.3 8
06:40 1018 30.06 848 25.04 -5.1 22.8 54 -13.1 8.4
06:45 1018 30.06 848 25.04 -5.1 22.8 53 -13.2 8.3
06:50 1018 30.06 847 25.01 -5 23 51 -13.7 7.3
06:55 1018 30.06 847 25.01 -4.9 23.2 50 -13.8 7.1
07:00 1018 30.06 847 25.01 -5.2 22.7 52 -13.6 7.6
07:05 1018 30.06 847 25.01 -5.4 22.4 52 -13.6 7.4
07:10 1018 30.06 848 25.04 -5.3 22.5 53 -13.5 7.7
07:15 1018 30.06 848 25.04 -5.3 22.4 54 -13.3 8.1
07:20 1019 30.09 848 25.04 -5.3 22.5 53 -13.4 7.9
07:25 1018 30.06 848 25.04 -5.1 22.9 51 -13.7 7.4
07:30 1018 30.06 848 25.04 -4.9 23.2 51 -13.6 7.5
07:35 1019 30.09 848 25.04 -4.9 23.2 51 -13.6 7.4
07:40 1019 30.09 848 25.04 -4.5 23.9 49 -13.7 7.4
07:45 1019 30.09 848 25.04 -4.2 24.4 50 -13.2 8.2
07:50 1019 30.09 848 25.04 -3.9 25 48 -13.3 8
07:55 1019 30.09 848 25.04 -3.4 25.8 44 -14.1 6.6
08:00 1019 30.09 848 25.04 -4 24.8 49 -13.3 8
08:05 1019 30.09 848 25.04 -4.9 23.2 52 -13.4 7.8
08:10 1019 30.09 848 25.04 -5 23 49 -14.1 6.7
08:15 1019 30.09 848 25.04 -4.4 24.1 46 -14.4 6.1
08:20 1019 30.09 848 25.04 -3.6 25.6 44 -14.1 6.6
08:25 1019 30.09 848 25.04 -2.8 27 41 -14.3 6.2
08:30 1019 30.09 848 25.04 -2.8 26.9 42 -14 6.8
08:35 1019 30.09 848 25.04 -3.5 25.6 44 -14.2 6.5
08:40 1019 30.09 848 25.04 -3.1 26.5 42 -14.2 6.5
08:45 1019 30.09 848 25.04 -2.7 27.1 43 -13.6 7.5
08:50 1019 30.09 848 25.04 -2.7 27.1 45 -13.1 8.4
08:55 1019 30.09 848 25.04 -2.9 26.8 42 -14.2 6.4
09:00 1019 30.09 848 25.04 -2.8 26.9 43 -13.7 7.3
09:05 1019 30.09 848 25.04 -3 26.5 42 -14.1 6.6
09:10 1019 30.09 848 25.04 -3.6 25.4 46 -13.8 7.2
09:15 1019 30.09 848 25.04 -3.6 25.6 44 -14.1 6.6
09:20 1019 30.09 848 25.04 -2.9 26.7 40 -14.6 5.7
09:25 1019 30.09 848 25.04 -2.5 27.6 40 -14.2 6.4
09:30 1019 30.09 849 25.07 -1.6 29.2 37 -14.5 5.9
09:35 1019 30.09 849 25.07 -1.1 30 38 -13.8 7.2
09:40 1019 30.09 849 25.07 -0.8 30.6 35 -14.3 6.2
09:45 1019 30.09 849 25.07 -0.4 31.2 38 -13.2 8.3
09:50 1019 30.09 848 25.04 -0 31.9 37 -13.1 8.5
09:55 1019 30.09 848 25.04 0.1 32.3 35 -13.6 7.5
10:00 1019 30.09 848 25.04 -0.1 31.9 34 -14.1 6.6
10:05 1019 30.09 848 25.04 -0.4 31.3 35 -14 6.7
10:10 1019 30.09 848 25.04 -0.8 30.5 34 -15 5.1
10:15 1019 30.09 848 25.04 -1.1 30 34 -15.1 4.7
10:20 1019 30.09 848 25.04 -1.3 29.6 33 -15.5 4.1
10:25 1019 30.09 848 25.04 -1.2 29.9 34 -15.3 4.5
10:30 1019 30.09 848 25.04 -0.1 31.8 34 -14.3 6.2
10:35 1019 30.09 848 25.04 0.8 33.4 34 -13.3 8
10:40 1019 30.09 848 25.04 0.6 33.2 36 -13 8.7
10:45 1019 30.09 848 25.04 -1 30.2 38 -13.6 7.5
10:50 1019 30.09 848 25.04 -0.8 30.6 36 -13.9 7
10:55 1019 30.09 848 25.04 -0.3 31.5 34 -14.2 6.5
11:00 1019 30.09 848 25.04 0.6 33 32 -14.2 6.5
11:05 1019 30.09 848 25.04 -0 31.9 32 -14.7 5.5
11:10 1019 30.09 848 25.04 0.5 33 32 -14.5 5.8
11:15 1019 30.09 848 25.04 0.9 33.5 32 -14 6.9
11:20 1019 30.09 848 25.04 1 33.7 31 -14.5 5.9
11:25 1019 30.09 848 25.04 0 32.1 32 -14.9 5.1
11:30 1019 30.09 848 25.04 0.5 32.9 28 -16.1 3.1
11:35 1019 30.09 848 25.04 -0.2 31.6 30 -15.7 3.8
11:40 1019 30.09 848 25.04 0.2 32.4 31 -15.2 4.7
11:45 1019 30.09 848 25.04 -0.3 31.5 33 -14.8 5.3
11:50 1019 30.09 848 25.04 -0.4 31.2 32 -15.3 4.5
11:55 1019 30.09 848 25.04 -0.7 30.8 29 -16.5 2.3
12:00 1019 30.09 848 25.04 -0.5 31 30 -16.2 2.9
12:05 1019 30.09 848 25.04 -0.7 30.8 27 -17.3 0.9
12:10 1019 30.09 848 25.04 -0.2 31.6 29 -16.2 2.8
12:15 1019 30.09 848 25.04 0.3 32.6 27 -16.7 1.9
12:20 1018 30.06 848 25.04 1 33.9 25 -17 1.3
12:25 1018 30.06 848 25.04 1.5 34.7 27 -15.6 3.9
12:30 1018 30.06 848 25.04 2.1 35.9 23 -16.9 1.5
12:35 1018 30.06 848 25.04 0.6 33.2 30 -14.9 5.2
12:40 1018 30.06 847 25.01 1.2 34.2 25 -16.8 1.8
12:45 1018 30.06 847 25.01 1.3 34.4 27 -15.7 3.7
12:50 1018 30.06 847 25.01 1 33.7 23 -18 -0.4
12:55 1018 30.06 847 25.01 1.8 35.2 21 -18.3 -1
13:00 1018 30.06 847 25.01 2 35.6 22 -17.8 -0.1
13:05 1018 30.06 847 25.01 2 35.6 21 -18.1 -0.6
13:10 1018 30.06 847 25.01 2.3 36.1 21 -17.8 -0.1
13:15 1018 30.06 847 25.01 2.9 37.2 20 -17.8 0
13:20 1018 30.06 847 25.01 3 37.4 22 -17 1.3
13:25 1018 30.06 847 25.01 3 37.4 20 -18.1 -0.6
13:30 1018 30.06 847 25.01 3.3 37.9 20 -17.8 -0
13:35 1018 30.06 847 25.01 3 37.4 18 -18.9 -2
13:40 1018 30.06 847 25.01 2.6 36.7 25 -15.4 4.2
13:45 1018 30.06 847 25.01 3.3 37.9 24 -15.6 3.9
13:50 1018 30.06 847 25.01 3.5 38.3 20 -17.4 0.8
13:55 1017 30.03 847 25.01 3.8 38.8 17 -19.1 -2.4
14:00 1017 30.03 847 25.01 3.5 38.2 19 -17.9 -0.2
14:05 1017 30.03 847 25.01 3.3 37.9 21 -17.3 0.9
14:10 1017 30.03 846 24.98 3.7 38.6 21 -16.9 1.6
14:15 1017 30.03 847 25.01 4.3 39.8 19 -17.3 0.9
14:20 1017 30.03 846 24.98 4.2 39.6 20 -16.9 1.5
14:25 1017 30.03 846 24.98 4.4 39.9 19 -17.3 0.8
14:30 1017 30.03 846 24.98 3.6 38.5 18 -18.4 -1.1
14:35 1017 30.03 846 24.98 3.6 38.4 20 -17.4 0.7
14:40 1017 30.03 846 24.98 3.4 38.1 24 -15.5 4.2
14:45 1017 30.03 846 24.98 3.7 38.7 22 -16.4 2.5
14:50 1017 30.03 846 24.98 3.3 38 22 -16.7 2
14:55 1017 30.03 846 24.98 3.5 38.2 23 -15.8 3.6
15:00 1017 30.03 846 24.98 3.7 38.6 21 -16.6 2
15:05 1017 30.03 846 24.98 3.4 38.1 24 -15.6 3.9
15:10 1017 30.03 846 24.98 4 39.3 21 -16.7 2
15:15 1017 30.03 846 24.98 4 39.3 23 -15.4 4.4
15:20 1017 30.03 846 24.98 4.4 39.9 24 -14.5 5.8
15:25 1017 30.03 846 24.98 4.2 39.6 24 -14.5 5.9
15:30 1017 30.03 846 24.98 4 39.3 23 -15.6 3.9
15:35 1017 30.03 846 24.98 4.1 39.3 21 -16.2 2.9
15:40 1017 30.03 846 24.98 3.9 39 20 -17 1.4
15:45 1017 30.03 846 24.98 4.2 39.5 21 -16.4 2.4
15:50 1017 30.03 846 24.98 3.9 39 21 -16.6 2.2
15:55 1017 30.03 846 24.98 4.2 39.6 20 -17.1 1.2
16:00 1017 30.03 846 24.98 3.8 38.8 20 -17 1.5
16:05 1017 30.03 846 24.98 4.2 39.5 21 -16.6 2.2
16:10 1017 30.03 846 24.98 3.9 39 18 -18.7 -1.7
16:15 1017 30.03 846 24.98 3.9 39.1 21 -16.8 1.8
16:20 1017 30.03 846 24.98 4.2 39.6 20 -16.9 1.6
16:25 1017 30.03 846 24.98 4.4 40 19 -17.1 1.3
16:30 1016 30 846 24.98 5.1 41.2 21 -15.4 4.3
16:35 1017 30.03 846 24.98 4.5 40.2 20 -16.7 2
16:40 1016 30 846 24.98 4.7 40.4 20 -16.2 2.8
16:45 1016 30 846 24.98 4.4 39.9 20 -17 1.4
16:50 1016 30 846 24.98 4.4 39.9 19 -17.1 1.2
16:55 1016 30 846 24.98 4.8 40.6 20 -16.4 2.4
17:00 1016 30 846 24.98 4.8 40.7 20 -16.2 2.9
17:05 1016 30 846 24.98 4.6 40.3 20 -16.7 1.9
17:10 1016 30 846 24.98 4.8 40.6 20 -16.4 2.4
17:15 1016 30 846 24.98 4.7 40.5 21 -16 3.3
17:20 1016 30 846 24.98 4.6 40.3 20 -16.6 2.2
17:25 1016 30 846 24.98 4.2 39.5 19 -17.6 0.3
17:30 1016 30 846 24.98 4.4 39.9 20 -16.9 1.7
17:35 1016 30 846 24.98 4.8 40.6 19 -17.2 1.1
17:40 1016 30 846 24.98 4.5 40.2 20 -16.7 2
17:45 1016 30 846 24.98 4.5 40.2 18 -17.7 0.1
17:50 1016 30 846 24.98 4.6 40.2 19 -17.1 1.2
17:55 1016 30 846 24.98 4.6 40.2 19 -17.2 1
18:00 1016 30 846 24.98 4.3 39.8 22 -15.6 3.9
18:05 1016 30 846 24.98 4.7 40.5 21 -16.1 3.1
18:10 1016 30 846 24.98 4.5 40.1 21 -16.2 2.8
18:15 1016 30 846 24.98 4.4 40 21 -16 3.2
18:20 1016 30 846 24.98 4.3 39.8 19 -17.6 0.4
18:25 1016 30 846 24.98 4.2 39.5 20 -16.9 1.5
18:30 1016 30 846 24.98 4.1 39.3 19 -17.4 0.7
18:35 1016 30 846 24.98 4.1 39.4 21 -16.4 2.4
18:40 1016 30 846 24.98 4.1 39.4 19 -17.8 -0
18:45 1016 30 846 24.98 4 39.2 20 -16.9 1.5
18:50 1016 30 846 24.98 3.9 39.1 22 -16 3.2
18:55 1016 30 846 24.98 4 39.1 22 -16 3.3
19:00 1016 30 846 24.98 3.9 39.1 23 -15.7 3.8
19:05 1016 30 846 24.98 3.8 38.9 19 -17.5 0.4
19:10 1016 30 846 24.98 3.7 38.7 23 -15.8 3.6
19:15 1016 30 846 24.98 3.6 38.5 23 -15.6 4
19:20 1016 30 846 24.98 3.6 38.4 23 -15.6 4
19:25 1016 30 846 24.98 3.5 38.2 23 -15.7 3.8
19:30 1016 30 846 24.98 3.4 38.1 25 -15.1 4.9
19:35 1016 30 846 24.98 3.3 37.9 25 -15 5
19:40 1016 30 846 24.98 3 37.5 26 -14.7 5.6
19:45 1016 30 846 24.98 3 37.4 26 -14.8 5.4
19:50 1017 30.03 846 24.98 2.9 37.2 27 -14.3 6.2
19:55 1017 30.03 846 24.98 2.6 36.7 29 -13.9 6.9
20:00 1017 30.03 846 24.98 2.4 36.4 28 -14.4 6
20:05 1017 30.03 846 24.98 2.4 36.3 25 -15.6 3.9
20:10 1017 30.03 846 24.98 2.4 36.3 26 -15.4 4.3
20:15 1017 30.03 846 24.98 2.3 36.1 26 -15.4 4.4
20:20 1017 30.03 846 24.98 2.1 35.8 26 -15.4 4.3
20:25 1017 30.03 846 24.98 1.9 35.5 28 -14.9 5.2
20:30 1017 30.03 846 24.98 1.8 35.3 27 -15.4 4.4
20:35 1017 30.03 846 24.98 1.8 35.2 27 -15.1 4.7
20:40 1017 30.03 846 24.98 1.7 35 31 -13.7 7.3
20:45 1017 30.03 846 24.98 1.2 34.2 34 -13.1 8.5
20:50 1017 30.03 846 24.98 0.8 33.4 37 -12.4 9.8
20:55 1017 30.03 846 24.98 0.6 33.1 37 -12.6 9.3
21:00 1017 30.03 846 24.98 0.4 32.7 39 -12.1 10.2
21:05 1017 30.03 846 24.98 0.5 32.9 34 -13.8 7.1
21:10 1017 30.03 846 24.98 0.6 33.1 33 -14 6.8
21:15 1017 30.03 846 24.98 0.6 33.1 33 -14 6.7
21:20 1017 30.03 846 24.98 0.7 33.2 30 -15.1 4.7
21:25 1017 30.03 847 25.01 1 33.7 28 -15.5 4.1
21:30 1017 30.03 847 25.01 1 33.8 32 -14.1 6.6
21:35 1017 30.03 847 25.01 0.8 33.5 29 -15.5 4.1
21:40 1018 30.06 847 25.01 0.9 33.7 31 -14.4 6
21:45 1018 30.06 847 25.01 0.9 33.5 33 -13.7 7.4
21:50 1018 30.06 847 25.01 0.5 33 32 -14.2 6.5
21:55 1018 30.06 847 25.01 0.5 33 32 -14.4 6.1
22:00 1018 30.06 847 25.01 0.6 33.1 33 -14 6.8
22:05 1018 30.06 847 25.01 0.4 32.7 37 -12.7 9.1
22:10 1018 30.06 847 25.01 0 32 35 -13.8 7.2
22:15 1018 30.06 847 25.01 0.1 32.1 33 -14.5 5.9
22:20 1018 30.06 847 25.01 0.2 32.4 33 -14.4 6.1
22:25 1018 30.06 847 25.01 0.3 32.6 31 -14.8 5.3
22:30 1018 30.06 847 25.01 0.5 32.9 30 -15.3 4.4
22:35 1018 30.06 847 25.01 0.8 33.4 29 -15.5 4.1
22:40 1018 30.06 847 25.01 0.9 33.6 29 -15.4 4.4
22:45 1018 30.06 847 25.01 0.9 33.6 29 -15.4 4.2
22:50 1018 30.06 847 25.01 0.9 33.6 29 -15.3 4.5
22:55 1018 30.06 847 25.01 0.9 33.5 29 -15.4 4.3
23:00 1018 30.06 847 25.01 0.9 33.6 28 -15.6 4
23:05 1018 30.06 847 25.01 0.7 33.3 33 -13.8 7.2
23:10 1018 30.06 847 25.01 -0.3 31.5 38 -12.9 8.7
23:15 1018 30.06 847 25.01 -0.7 30.8 37 -13.6 7.5
23:20 1018 30.06 847 25.01 -0.7 30.7 36 -14.2 6.5
23:25 1018 30.06 847 25.01 -0.5 31.2 37 -13.5 7.7
23:30 1018 30.06 847 25.01 -1 30.3 38 -13.5 7.7
23:35 1018 30.06 847 25.01 -1.2 29.8 38 -13.7 7.3
23:40 1018 30.06 847 25.01 -1.2 29.9 39 -13.4 7.8
23:45 1018 30.06 847 25.01 -1.4 29.6 40 -13.3 8
23:50 1018 30.06 847 25.01 -1.6 29.2 39 -13.8 7.1
23:55 1018 30.06 847 25.01 -1.6 29.1 38 -14.1 6.7
24:00 1018 30.06 847 25.01 -1.7 29 40 -13.6 7.5